Terminal Aerodrome Forecast
Issued by NWS Sterling, VA

Home | Current Version | Previous Version | Text Only | Print | Product List | Glossary On
Versions: 1 2 3 4 5 6 7 8 9 10 11 12 13 14 15 16 17 18 19 20 21 22 23 24 25
000
FTUS41 KLWX 302000 AAA
TAFIAD
TAF AMD
KIAD 302053Z 3021/0124 13005KT P6SM SCT015
     FM010000 VRB03KT P6SM BKN050
     FM010400 00000KT 3SM BR BKN060
     FM010700 00000KT 3SM BR BKN003
     FM011400 02004KT 6SM BR BKN008
     FM011600 02004KT P6SM BKN025
     FM011800 VRB03KT P6SM BKN050=

USA.gov is the U.S. government's official web portal to all federal, state and local government web resources and services.